sensor_id;sensor_type;location;lat;lon;timestamp;temperature;humidity
26947;DHT22;14501;52.282;10.560;2023-06-24T00:01:23;13.50;99.90
26947;DHT22;14501;52.282;10.560;2023-06-24T00:03:49;13.50;99.90
26947;DHT22;14501;52.282;10.560;2023-06-24T00:06:21;13.40;99.90
26947;DHT22;14501;52.282;10.560;2023-06-24T00:08:48;13.40;99.90
26947;DHT22;14501;52.282;10.560;2023-06-24T00:11:15;13.40;99.90
26947;DHT22;14501;52.282;10.560;2023-06-24T00:13:42;13.30;99.90
26947;DHT22;14501;52.282;10.560;2023-06-24T00:16:09;13.30;99.90
26947;DHT22;14501;52.282;10.560;2023-06-24T00:18:35;13.20;99.90
26947;DHT22;14501;52.282;10.560;2023-06-24T00:21:01;13.20;99.90
26947;DHT22;14501;52.282;10.560;2023-06-24T00:23:28;13.20;99.90
26947;DHT22;14501;52.282;10.560;2023-06-24T00:25:57;13.20;99.90
26947;DHT22;14501;52.282;10.560;2023-06-24T00:28:23;13.10;99.90
26947;DHT22;14501;52.282;10.560;2023-06-24T00:30:49;13.10;99.90
26947;DHT22;14501;52.282;10.560;2023-06-24T00:33:15;13.10;99.90
26947;DHT22;14501;52.282;10.560;2023-06-24T00:35:42;13.10;99.90
26947;DHT22;14501;52.282;10.560;2023-06-24T00:38:08;13.00;99.90
26947;DHT22;14501;52.282;10.560;2023-06-24T00:40:34;13.00;99.90
26947;DHT22;14501;52.282;10.560;2023-06-24T00:43:00;13.00;99.90
26947;DHT22;14501;52.282;10.560;2023-06-24T00:45:27;13.00;99.90
26947;DHT22;14501;52.282;10.560;2023-06-24T00:47:53;12.90;99.90
26947;DHT22;14501;52.282;10.560;2023-06-24T00:50:22;12.90;99.90
26947;DHT22;14501;52.282;10.560;2023-06-24T00:52:48;12.90;99.90
26947;DHT22;14501;52.282;10.560;2023-06-24T00:55:15;12.90;99.90
26947;DHT22;14501;52.282;10.560;2023-06-24T00:57:44;12.80;99.90
26947;DHT22;14501;52.282;10.560;2023-06-24T01:00:11;12.90;99.90
26947;DHT22;14501;52.282;10.560;2023-06-24T01:02:41;12.80;99.90
26947;DHT22;14501;52.282;10.560;2023-06-24T01:05:08;12.80;99.90
26947;DHT22;14501;52.282;10.560;2023-06-24T01:07:35;12.80;99.90
26947;DHT22;14501;52.282;10.560;2023-06-24T01:10:02;12.80;99.90
26947;DHT22;14501;52.282;10.560;2023-06-24T01:12:33;12.80;99.90
26947;DHT22;14501;52.282;10.560;2023-06-24T01:14:59;12.70;99.90
26947;DHT22;14501;52.282;10.560;2023-06-24T01:17:33;12.70;99.90
26947;DHT22;14501;52.282;10.560;2023-06-24T01:20:11;12.70;99.90
26947;DHT22;14501;52.282;10.560;2023-06-24T01:28:36;12.70;99.90
26947;DHT22;14501;52.282;10.560;2023-06-24T01:34:25;12.60;99.90
26947;DHT22;14501;52.282;10.560;2023-06-24T01:39:44;12.50;99.90
26947;DHT22;14501;52.282;10.560;2023-06-24T01:42:12;12.50;99.90
26947;DHT22;14501;52.282;10.560;2023-06-24T01:44:43;12.50;99.90
26947;DHT22;14501;52.282;10.560;2023-06-24T01:47:09;12.50;99.90
26947;DHT22;14501;52.282;10.560;2023-06-24T01:49:39;12.50;99.90
26947;DHT22;14501;52.282;10.560;2023-06-24T01:52:10;12.40;99.90
26947;DHT22;14501;52.282;10.560;2023-06-24T01:54:38;12.50;99.90
26947;DHT22;14501;52.282;10.560;2023-06-24T01:57:06;12.40;99.90
26947;DHT22;14501;52.282;10.560;2023-06-24T01:59:34;12.40;99.90
26947;DHT22;14501;52.282;10.560;2023-06-24T02:02:02;12.40;99.90
26947;DHT22;14501;52.282;10.560;2023-06-24T02:04:29;12.40;99.90
26947;DHT22;14501;52.282;10.560;2023-06-24T02:06:59;12.30;99.90
26947;DHT22;14501;52.282;10.560;2023-06-24T02:09:29;12.50;99.90
26947;DHT22;14501;52.282;10.560;2023-06-24T02:11:57;12.30;99.90
26947;DHT22;14501;52.282;10.560;2023-06-24T02:14:26;12.30;99.90
26947;DHT22;14501;52.282;10.560;2023-06-24T02:16:53;12.30;99.90
26947;DHT22;14501;52.282;10.560;2023-06-24T02:19:29;12.30;99.90
26947;DHT22;14501;52.282;10.560;2023-06-24T02:21:58;12.30;99.90
26947;DHT22;14501;52.282;10.560;2023-06-24T02:24:25;12.30;99.90
26947;DHT22;14501;52.282;10.560;2023-06-24T02:26:51;12.20;99.90
26947;DHT22;14501;52.282;10.560;2023-06-24T02:29:18;12.30;99.90
26947;DHT22;14501;52.282;10.560;2023-06-24T02:31:45;12.30;99.90
26947;DHT22;14501;52.282;10.560;2023-06-24T02:34:11;12.30;99.90
26947;DHT22;14501;52.282;10.560;2023-06-24T02:36:36;12.20;99.90
26947;DHT22;14501;52.282;10.560;2023-06-24T02:39:02;12.30;99.90
26947;DHT22;14501;52.282;10.560;2023-06-24T02:41:28;12.20;99.90
26947;DHT22;14501;52.282;10.560;2023-06-24T02:43:53;12.30;99.90
26947;DHT22;14501;52.282;10.560;2023-06-24T02:46:20;12.20;99.90
26947;DHT22;14501;52.282;10.560;2023-06-24T02:48:47;12.20;99.90
26947;DHT22;14501;52.282;10.560;2023-06-24T02:51:13;12.20;99.90
26947;DHT22;14501;52.282;10.560;2023-06-24T02:53:40;12.20;99.90
26947;DHT22;14501;52.282;10.560;2023-06-24T02:56:07;12.20;99.90
26947;DHT22;14501;52.282;10.560;2023-06-24T02:58:33;12.10;99.90
26947;DHT22;14501;52.282;10.560;2023-06-24T03:01:02;12.10;99.90
26947;DHT22;14501;52.282;10.560;2023-06-24T03:03:32;12.20;99.90
26947;DHT22;14501;52.282;10.560;2023-06-24T03:05:58;12.20;99.90
26947;DHT22;14501;52.282;10.560;2023-06-24T03:08:25;12.10;99.90
26947;DHT22;14501;52.282;10.560;2023-06-24T03:10:55;12.10;99.90
26947;DHT22;14501;52.282;10.560;2023-06-24T03:13:21;12.10;99.90
26947;DHT22;14501;52.282;10.560;2023-06-24T03:15:47;12.10;99.90
26947;DHT22;14501;52.282;10.560;2023-06-24T03:18:12;12.10;99.90
26947;DHT22;14501;52.282;10.560;2023-06-24T03:20:38;12.10;99.90
26947;DHT22;14501;52.282;10.560;2023-06-24T03:23:05;12.10;99.90
26947;DHT22;14501;52.282;10.560;2023-06-24T03:25:32;12.10;99.90
26947;DHT22;14501;52.282;10.560;2023-06-24T03:27:57;12.20;99.90
26947;DHT22;14501;52.282;10.560;2023-06-24T03:30:24;12.20;99.90
26947;DHT22;14501;52.282;10.560;2023-06-24T03:32:49;12.20;99.90
26947;DHT22;14501;52.282;10.560;2023-06-24T03:35:15;12.20;99.90
26947;DHT22;14501;52.282;10.560;2023-06-24T03:37:40;12.20;99.90
26947;DHT22;14501;52.282;10.560;2023-06-24T03:40:07;12.20;99.90
26947;DHT22;14501;52.282;10.560;2023-06-24T03:42:33;12.30;99.90
26947;DHT22;14501;52.282;10.560;2023-06-24T03:44:59;12.30;99.90
26947;DHT22;14501;52.282;10.560;2023-06-24T03:47:25;12.30;99.90
26947;DHT22;14501;52.282;10.560;2023-06-24T03:49:50;12.40;99.90
26947;DHT22;14501;52.282;10.560;2023-06-24T03:52:17;12.40;99.90
26947;DHT22;14501;52.282;10.560;2023-06-24T03:54:42;12.50;99.90
26947;DHT22;14501;52.282;10.560;2023-06-24T03:57:08;12.50;99.90
26947;DHT22;14501;52.282;10.560;2023-06-24T03:59:36;12.60;99.90
26947;DHT22;14501;52.282;10.560;2023-06-24T04:02:02;12.60;99.90
26947;DHT22;14501;52.282;10.560;2023-06-24T04:04:28;12.70;99.90
26947;DHT22;14501;52.282;10.560;2023-06-24T04:06:53;12.80;99.90
26947;DHT22;14501;52.282;10.560;2023-06-24T04:09:19;12.90;99.90
26947;DHT22;14501;52.282;10.560;2023-06-24T04:11:45;12.80;99.90
26947;DHT22;14501;52.282;10.560;2023-06-24T04:14:10;12.90;99.90
26947;DHT22;14501;52.282;10.560;2023-06-24T04:16:36;13.00;99.90
26947;DHT22;14501;52.282;10.560;2023-06-24T04:19:02;13.00;99.90
26947;DHT22;14501;52.282;10.560;2023-06-24T04:21:27;13.10;99.90
26947;DHT22;14501;52.282;10.560;2023-06-24T04:23:53;13.20;99.90
26947;DHT22;14501;52.282;10.560;2023-06-24T04:26:19;13.30;99.90
26947;DHT22;14501;52.282;10.560;2023-06-24T04:28:44;13.40;99.90
26947;DHT22;14501;52.282;10.560;2023-06-24T04:31:10;13.50;99.90
26947;DHT22;14501;52.282;10.560;2023-06-24T04:33:36;13.60;99.90
26947;DHT22;14501;52.282;10.560;2023-06-24T04:36:01;13.80;99.90
26947;DHT22;14501;52.282;10.560;2023-06-24T04:38:27;13.90;99.90
26947;DHT22;14501;52.282;10.560;2023-06-24T04:40:53;14.00;99.90
26947;DHT22;14501;52.282;10.560;2023-06-24T04:43:18;14.20;99.90
26947;DHT22;14501;52.282;10.560;2023-06-24T04:45:44;14.30;99.90
26947;DHT22;14501;52.282;10.560;2023-06-24T04:48:09;14.40;99.90
26947;DHT22;14501;52.282;10.560;2023-06-24T04:50:35;14.60;99.90
26947;DHT22;14501;52.282;10.560;2023-06-24T04:53:01;14.70;99.90
26947;DHT22;14501;52.282;10.560;2023-06-24T04:55:27;14.90;99.90
26947;DHT22;14501;52.282;10.560;2023-06-24T04:57:55;15.00;99.90
26947;DHT22;14501;52.282;10.560;2023-06-24T05:00:21;15.10;99.90
26947;DHT22;14501;52.282;10.560;2023-06-24T05:02:48;15.20;99.90
26947;DHT22;14501;52.282;10.560;2023-06-24T05:05:14;15.20;99.90
26947;DHT22;14501;52.282;10.560;2023-06-24T05:07:39;15.30;99.90
26947;DHT22;14501;52.282;10.560;2023-06-24T05:10:05;15.40;99.90
26947;DHT22;14501;52.282;10.560;2023-06-24T05:12:31;15.40;99.90
26947;DHT22;14501;52.282;10.560;2023-06-24T05:14:57;15.50;99.90
26947;DHT22;14501;52.282;10.560;2023-06-24T05:17:23;15.60;99.90
26947;DHT22;14501;52.282;10.560;2023-06-24T05:19:49;15.70;99.90
26947;DHT22;14501;52.282;10.560;2023-06-24T05:22:14;15.70;99.90
26947;DHT22;14501;52.282;10.560;2023-06-24T05:24:40;15.70;99.90
26947;DHT22;14501;52.282;10.560;2023-06-24T05:27:07;15.70;99.90
26947;DHT22;14501;52.282;10.560;2023-06-24T05:29:33;15.80;99.90
26947;DHT22;14501;52.282;10.560;2023-06-24T05:31:59;15.80;99.90
26947;DHT22;14501;52.282;10.560;2023-06-24T05:34:25;16.00;99.90
26947;DHT22;14501;52.282;10.560;2023-06-24T05:36:51;16.10;99.90
26947;DHT22;14501;52.282;10.560;2023-06-24T05:39:17;16.30;99.90
26947;DHT22;14501;52.282;10.560;2023-06-24T05:41:42;16.30;99.90
26947;DHT22;14501;52.282;10.560;2023-06-24T05:44:09;16.40;99.90
26947;DHT22;14501;52.282;10.560;2023-06-24T05:46:37;16.50;99.90
26947;DHT22;14501;52.282;10.560;2023-06-24T05:49:03;16.80;99.90
26947;DHT22;14501;52.282;10.560;2023-06-24T05:51:29;18.50;99.90
26947;DHT22;14501;52.282;10.560;2023-06-24T05:53:55;21.20;99.90
26947;DHT22;14501;52.282;10.560;2023-06-24T05:56:21;23.60;99.90
26947;DHT22;14501;52.282;10.560;2023-06-24T05:58:48;26.10;99.90
26947;DHT22;14501;52.282;10.560;2023-06-24T06:01:14;28.00;99.90
26947;DHT22;14501;52.282;10.560;2023-06-24T06:03:40;29.50;99.90
26947;DHT22;14501;52.282;10.560;2023-06-24T06:06:05;31.40;99.90
26947;DHT22;14501;52.282;10.560;2023-06-24T06:08:32;32.60;99.90
26947;DHT22;14501;52.282;10.560;2023-06-24T06:10:58;33.60;99.90
26947;DHT22;14501;52.282;10.560;2023-06-24T06:13:24;34.10;99.80
26947;DHT22;14501;52.282;10.560;2023-06-24T06:15:50;34.30;97.40
26947;DHT22;14501;52.282;10.560;2023-06-24T06:18:15;34.00;96.40
26947;DHT22;14501;52.282;10.560;2023-06-24T06:20:41;34.00;96.70
26947;DHT22;14501;52.282;10.560;2023-06-24T06:23:07;34.10;97.00
26947;DHT22;14501;52.282;10.560;2023-06-24T06:25:32;34.80;96.10
26947;DHT22;14501;52.282;10.560;2023-06-24T06:27:58;35.00;94.40
26947;DHT22;14501;52.282;10.560;2023-06-24T06:30:24;35.60;92.80
26947;DHT22;14501;52.282;10.560;2023-06-24T06:32:49;36.00;93.50
26947;DHT22;14501;52.282;10.560;2023-06-24T06:35:15;36.00;91.10
26947;DHT22;14501;52.282;10.560;2023-06-24T06:37:41;36.40;91.90
26947;DHT22;14501;52.282;10.560;2023-06-24T06:40:07;36.80;90.70
26947;DHT22;14501;52.282;10.560;2023-06-24T06:42:32;37.50;90.00
26947;DHT22;14501;52.282;10.560;2023-06-24T06:44:58;38.40;85.00
26947;DHT22;14501;52.282;10.560;2023-06-24T06:47:24;37.30;85.70
26947;DHT22;14501;52.282;10.560;2023-06-24T06:49:49;36.90;87.90
26947;DHT22;14501;52.282;10.560;2023-06-24T06:52:15;37.30;85.30
26947;DHT22;14501;52.282;10.560;2023-06-24T06:54:41;38.40;85.40
26947;DHT22;14501;52.282;10.560;2023-06-24T06:57:06;39.40;82.40
26947;DHT22;14501;52.282;10.560;2023-06-24T06:59:32;39.80;80.00
26947;DHT22;14501;52.282;10.560;2023-06-24T07:01:58;39.90;79.90
26947;DHT22;14501;52.282;10.560;2023-06-24T07:04:24;40.30;76.50
26947;DHT22;14501;52.282;10.560;2023-06-24T07:06:50;40.70;74.40
26947;DHT22;14501;52.282;10.560;2023-06-24T07:11:42;40.80;74.90
26947;DHT22;14501;52.282;10.560;2023-06-24T07:14:08;40.40;76.60
26947;DHT22;14501;52.282;10.560;2023-06-24T07:16:34;40.40;71.70
26947;DHT22;14501;52.282;10.560;2023-06-24T07:19:00;40.60;72.90
26947;DHT22;14501;52.282;10.560;2023-06-24T07:21:25;41.20;71.90
26947;DHT22;14501;52.282;10.560;2023-06-24T07:23:51;40.80;73.10
26947;DHT22;14501;52.282;10.560;2023-06-24T07:26:16;41.40;69.90
26947;DHT22;14501;52.282;10.560;2023-06-24T07:28:42;41.20;68.90
26947;DHT22;14501;52.282;10.560;2023-06-24T07:31:08;40.70;70.10
26947;DHT22;14501;52.282;10.560;2023-06-24T07:33:33;41.30;68.30
26947;DHT22;14501;52.282;10.560;2023-06-24T07:36:00;41.50;69.40
26947;DHT22;14501;52.282;10.560;2023-06-24T07:38:27;41.10;67.30
26947;DHT22;14501;52.282;10.560;2023-06-24T07:40:53;41.50;66.80
26947;DHT22;14501;52.282;10.560;2023-06-24T07:43:19;41.70;71.10
26947;DHT22;14501;52.282;10.560;2023-06-24T07:45:44;41.50;66.70
26947;DHT22;14501;52.282;10.560;2023-06-24T07:48:10;42.10;66.70
26947;DHT22;14501;52.282;10.560;2023-06-24T07:50:35;42.30;65.10
26947;DHT22;14501;52.282;10.560;2023-06-24T07:53:02;42.10;65.80
26947;DHT22;14501;52.282;10.560;2023-06-24T07:55:28;42.70;64.90
26947;DHT22;14501;52.282;10.560;2023-06-24T07:57:53;42.80;62.70
26947;DHT22;14501;52.282;10.560;2023-06-24T08:00:19;42.00;63.00
26947;DHT22;14501;52.282;10.560;2023-06-24T08:02:44;42.50;66.80
26947;DHT22;14501;52.282;10.560;2023-06-24T08:05:10;42.10;64.80
26947;DHT22;14501;52.282;10.560;2023-06-24T08:07:37;42.50;67.60
26947;DHT22;14501;52.282;10.560;2023-06-24T08:10:03;42.50;63.60
26947;DHT22;14501;52.282;10.560;2023-06-24T08:12:29;42.90;63.20
26947;DHT22;14501;52.282;10.560;2023-06-24T08:14:55;43.20;62.80
26947;DHT22;14501;52.282;10.560;2023-06-24T08:17:20;43.00;62.00
26947;DHT22;14501;52.282;10.560;2023-06-24T08:19:46;42.90;62.20
26947;DHT22;14501;52.282;10.560;2023-06-24T08:22:11;42.80;60.50
26947;DHT22;14501;52.282;10.560;2023-06-24T08:24:37;43.00;64.20
26947;DHT22;14501;52.282;10.560;2023-06-24T08:27:03;41.70;60.90
26947;DHT22;14501;52.282;10.560;2023-06-24T08:29:29;42.50;61.20
26947;DHT22;14501;52.282;10.560;2023-06-24T08:31:54;42.50;62.10
26947;DHT22;14501;52.282;10.560;2023-06-24T08:34:20;42.40;62.90
26947;DHT22;14501;52.282;10.560;2023-06-24T08:36:45;42.50;62.60
26947;DHT22;14501;52.282;10.560;2023-06-24T08:39:11;42.50;64.00
26947;DHT22;14501;52.282;10.560;2023-06-24T08:41:37;42.20;62.10
26947;DHT22;14501;52.282;10.560;2023-06-24T08:44:03;42.60;60.30
26947;DHT22;14501;52.282;10.560;2023-06-24T08:46:29;43.20;60.50
26947;DHT22;14501;52.282;10.560;2023-06-24T08:51:44;43.00;61.00
26947;DHT22;14501;52.282;10.560;2023-06-24T08:54:13;43.20;61.60
26947;DHT22;14501;52.282;10.560;2023-06-24T08:56:41;43.30;60.80
26947;DHT22;14501;52.282;10.560;2023-06-24T08:59:08;43.20;61.00
26947;DHT22;14501;52.282;10.560;2023-06-24T09:01:34;42.60;62.30
26947;DHT22;14501;52.282;10.560;2023-06-24T09:04:00;43.00;61.20
26947;DHT22;14501;52.282;10.560;2023-06-24T09:06:25;42.70;60.50
26947;DHT22;14501;52.282;10.560;2023-06-24T09:08:55;42.90;61.30
26947;DHT22;14501;52.282;10.560;2023-06-24T09:11:27;43.00;58.30
26947;DHT22;14501;52.282;10.560;2023-06-24T09:13:59;43.20;58.80
26947;DHT22;14501;52.282;10.560;2023-06-24T09:16:26;43.50;60.10
26947;DHT22;14501;52.282;10.560;2023-06-24T09:18:52;43.60;59.10
26947;DHT22;14501;52.282;10.560;2023-06-24T09:21:27;43.40;60.00
26947;DHT22;14501;52.282;10.560;2023-06-24T09:23:56;43.20;63.20
26947;DHT22;14501;52.282;10.560;2023-06-24T09:26:26;43.40;60.50
26947;DHT22;14501;52.282;10.560;2023-06-24T09:28:53;43.80;58.50
26947;DHT22;14501;52.282;10.560;2023-06-24T09:31:19;43.30;61.10
26947;DHT22;14501;52.282;10.560;2023-06-24T09:33:48;42.60;59.80
26947;DHT22;14501;52.282;10.560;2023-06-24T09:36:15;41.90;60.70
26947;DHT22;14501;52.282;10.560;2023-06-24T09:38:43;41.60;62.30
26947;DHT22;14501;52.282;10.560;2023-06-24T09:41:10;41.70;59.30
26947;DHT22;14501;52.282;10.560;2023-06-24T09:43:36;42.20;58.70
26947;DHT22;14501;52.282;10.560;2023-06-24T09:46:05;42.40;59.90
26947;DHT22;14501;52.282;10.560;2023-06-24T09:48:33;42.80;59.60
26947;DHT22;14501;52.282;10.560;2023-06-24T09:51:05;42.10;57.80
26947;DHT22;14501;52.282;10.560;2023-06-24T09:53:32;41.40;61.50
26947;DHT22;14501;52.282;10.560;2023-06-24T09:55:59;41.80;58.90
26947;DHT22;14501;52.282;10.560;2023-06-24T09:58:27;41.50;65.00
26947;DHT22;14501;52.282;10.560;2023-06-24T10:00:54;41.70;62.40
26947;DHT22;14501;52.282;10.560;2023-06-24T10:03:21;41.80;59.80
26947;DHT22;14501;52.282;10.560;2023-06-24T10:05:47;42.20;62.00
26947;DHT22;14501;52.282;10.560;2023-06-24T10:08:13;42.70;61.10
26947;DHT22;14501;52.282;10.560;2023-06-24T10:10:40;42.00;58.00
26947;DHT22;14501;52.282;10.560;2023-06-24T10:13:05;41.80;61.50
26947;DHT22;14501;52.282;10.560;2023-06-24T10:15:32;41.30;59.10
26947;DHT22;14501;52.282;10.560;2023-06-24T10:18:02;40.90;59.10
26947;DHT22;14501;52.282;10.560;2023-06-24T10:20:28;40.50;59.60
26947;DHT22;14501;52.282;10.560;2023-06-24T10:22:54;40.50;62.80
26947;DHT22;14501;52.282;10.560;2023-06-24T10:25:20;40.60;62.00
26947;DHT22;14501;52.282;10.560;2023-06-24T10:27:53;40.70;63.70
26947;DHT22;14501;52.282;10.560;2023-06-24T10:30:19;40.90;62.80
26947;DHT22;14501;52.282;10.560;2023-06-24T10:32:51;40.90;65.90
26947;DHT22;14501;52.282;10.560;2023-06-24T10:35:26;41.00;62.70
26947;DHT22;14501;52.282;10.560;2023-06-24T10:38:01;40.90;62.30
26947;DHT22;14501;52.282;10.560;2023-06-24T10:45:58;37.70;66.60
26947;DHT22;14501;52.282;10.560;2023-06-24T10:48:25;36.80;69.30
26947;DHT22;14501;52.282;10.560;2023-06-24T10:50:51;35.60;74.00
26947;DHT22;14501;52.282;10.560;2023-06-24T10:53:17;34.60;70.70
26947;DHT22;14501;52.282;10.560;2023-06-24T10:55:44;34.10;76.70
26947;DHT22;14501;52.282;10.560;2023-06-24T10:58:12;33.60;77.10
26947;DHT22;14501;52.282;10.560;2023-06-24T11:00:39;33.10;76.80
26947;DHT22;14501;52.282;10.560;2023-06-24T11:03:17;32.70;80.00
26947;DHT22;14501;52.282;10.560;2023-06-24T11:05:46;32.10;79.00
26947;DHT22;14501;52.282;10.560;2023-06-24T11:08:13;31.70;82.10
26947;DHT22;14501;52.282;10.560;2023-06-24T11:10:46;31.70;79.30
26947;DHT22;14501;52.282;10.560;2023-06-24T11:13:13;31.60;80.50
26947;DHT22;14501;52.282;10.560;2023-06-24T11:15:41;31.40;82.60
26947;DHT22;14501;52.282;10.560;2023-06-24T11:18:10;31.00;82.10
26947;DHT22;14501;52.282;10.560;2023-06-24T11:20:39;31.00;82.10
26947;DHT22;14501;52.282;10.560;2023-06-24T11:23:09;30.70;82.80
26947;DHT22;14501;52.282;10.560;2023-06-24T11:25:43;30.70;87.10
26947;DHT22;14501;52.282;10.560;2023-06-24T11:28:18;30.80;86.30
26947;DHT22;14501;52.282;10.560;2023-06-24T11:30:44;30.90;86.30
26947;DHT22;14501;52.282;10.560;2023-06-24T11:33:09;30.80;83.70
26947;DHT22;14501;52.282;10.560;2023-06-24T11:35:35;30.50;86.60
26947;DHT22;14501;52.282;10.560;2023-06-24T11:38:02;30.60;85.70
26947;DHT22;14501;52.282;10.560;2023-06-24T11:40:31;30.40;87.20
26947;DHT22;14501;52.282;10.560;2023-06-24T11:42:57;30.40;87.20
26947;DHT22;14501;52.282;10.560;2023-06-24T11:45:24;30.30;83.70
26947;DHT22;14501;52.282;10.560;2023-06-24T11:47:50;30.40;88.90
26947;DHT22;14501;52.282;10.560;2023-06-24T11:50:15;30.40;89.70
26947;DHT22;14501;52.282;10.560;2023-06-24T11:52:42;30.30;82.40
26947;DHT22;14501;52.282;10.560;2023-06-24T11:55:24;30.20;84.70
26947;DHT22;14501;52.282;10.560;2023-06-24T11:58:01;30.30;89.20
26947;DHT22;14501;52.282;10.560;2023-06-24T12:00:32;30.40;89.10
26947;DHT22;14501;52.282;10.560;2023-06-24T12:03:00;30.60;88.50
26947;DHT22;14501;52.282;10.560;2023-06-24T12:05:33;30.80;85.00
26947;DHT22;14501;52.282;10.560;2023-06-24T12:08:07;30.50;85.70
26947;DHT22;14501;52.282;10.560;2023-06-24T12:10:33;30.40;88.30
26947;DHT22;14501;52.282;10.560;2023-06-24T12:13:00;30.30;86.80
26947;DHT22;14501;52.282;10.560;2023-06-24T12:15:27;30.30;90.00
26947;DHT22;14501;52.282;10.560;2023-06-24T12:17:53;30.50;86.30
26947;DHT22;14501;52.282;10.560;2023-06-24T12:20:18;30.60;87.90
26947;DHT22;14501;52.282;10.560;2023-06-24T12:22:46;30.30;87.10
26947;DHT22;14501;52.282;10.560;2023-06-24T12:25:11;30.30;87.30
26947;DHT22;14501;52.282;10.560;2023-06-24T12:27:38;30.30;86.50
26947;DHT22;14501;52.282;10.560;2023-06-24T12:30:04;30.50;90.10
26947;DHT22;14501;52.282;10.560;2023-06-24T12:32:30;30.70;88.90
26947;DHT22;14501;52.282;10.560;2023-06-24T12:34:55;30.90;88.40
26947;DHT22;14501;52.282;10.560;2023-06-24T12:37:22;30.80;84.30
26947;DHT22;14501;52.282;10.560;2023-06-24T12:39:48;30.60;84.00
26947;DHT22;14501;52.282;10.560;2023-06-24T12:42:13;30.60;87.80
26947;DHT22;14501;52.282;10.560;2023-06-24T12:44:39;30.60;89.10
26947;DHT22;14501;52.282;10.560;2023-06-24T12:47:05;30.50;86.30
26947;DHT22;14501;52.282;10.560;2023-06-24T12:49:30;30.10;85.60
26947;DHT22;14501;52.282;10.560;2023-06-24T12:51:56;30.00;86.60
26947;DHT22;14501;52.282;10.560;2023-06-24T12:54:22;29.60;88.60
26947;DHT22;14501;52.282;10.560;2023-06-24T12:56:47;29.30;88.30
26947;DHT22;14501;52.282;10.560;2023-06-24T12:59:13;28.30;90.60
26947;DHT22;14501;52.282;10.560;2023-06-24T13:01:38;28.30;90.60
26947;DHT22;14501;52.282;10.560;2023-06-24T13:04:04;28.10;91.70
26947;DHT22;14501;52.282;10.560;2023-06-24T13:06:29;28.30;92.30
26947;DHT22;14501;52.282;10.560;2023-06-24T13:08:55;28.50;91.30
26947;DHT22;14501;52.282;10.560;2023-06-24T13:11:22;28.70;90.80
26947;DHT22;14501;52.282;10.560;2023-06-24T13:13:48;29.10;91.50
26947;DHT22;14501;52.282;10.560;2023-06-24T13:16:14;29.20;88.80
26947;DHT22;14501;52.282;10.560;2023-06-24T13:18:39;29.50;89.50
26947;DHT22;14501;52.282;10.560;2023-06-24T13:21:05;29.70;87.60
26947;DHT22;14501;52.282;10.560;2023-06-24T13:23:32;30.10;91.00
26947;DHT22;14501;52.282;10.560;2023-06-24T13:25:59;30.10;88.60
26947;DHT22;14501;52.282;10.560;2023-06-24T13:28:24;30.30;89.70
26947;DHT22;14501;52.282;10.560;2023-06-24T13:30:50;30.70;90.30
26947;DHT22;14501;52.282;10.560;2023-06-24T13:33:19;30.40;85.10
26947;DHT22;14501;52.282;10.560;2023-06-24T13:35:45;30.30;85.70
26947;DHT22;14501;52.282;10.560;2023-06-24T13:38:11;30.20;86.60
26947;DHT22;14501;52.282;10.560;2023-06-24T13:40:37;30.00;83.10
26947;DHT22;14501;52.282;10.560;2023-06-24T13:43:03;29.80;84.20
26947;DHT22;14501;52.282;10.560;2023-06-24T13:45:29;29.40;83.60
26947;DHT22;14501;52.282;10.560;2023-06-24T13:47:54;29.10;86.60
26947;DHT22;14501;52.282;10.560;2023-06-24T13:50:20;28.70;89.60
26947;DHT22;14501;52.282;10.560;2023-06-24T13:52:46;28.70;87.60
26947;DHT22;14501;52.282;10.560;2023-06-24T13:55:11;28.80;91.20
26947;DHT22;14501;52.282;10.560;2023-06-24T13:57:37;28.70;90.20
26947;DHT22;14501;52.282;10.560;2023-06-24T14:00:03;28.60;91.00
26947;DHT22;14501;52.282;10.560;2023-06-24T14:02:29;28.60;90.20
26947;DHT22;14501;52.282;10.560;2023-06-24T14:04:55;28.70;90.10
26947;DHT22;14501;52.282;10.560;2023-06-24T14:07:20;28.90;90.30
26947;DHT22;14501;52.282;10.560;2023-06-24T14:09:46;28.70;88.10
26947;DHT22;14501;52.282;10.560;2023-06-24T14:12:11;28.80;91.30
26947;DHT22;14501;52.282;10.560;2023-06-24T14:14:37;28.90;89.70
26947;DHT22;14501;52.282;10.560;2023-06-24T14:17:05;29.00;88.40
26947;DHT22;14501;52.282;10.560;2023-06-24T14:19:34;29.40;89.30
26947;DHT22;14501;52.282;10.560;2023-06-24T14:22:00;29.40;90.40
26947;DHT22;14501;52.282;10.560;2023-06-24T14:24:26;29.50;86.60
26947;DHT22;14501;52.282;10.560;2023-06-24T14:26:51;29.50;85.70
26947;DHT22;14501;52.282;10.560;2023-06-24T14:31:43;29.20;86.30
26947;DHT22;14501;52.282;10.560;2023-06-24T14:34:09;29.10;87.70
26947;DHT22;14501;52.282;10.560;2023-06-24T14:36:34;28.90;89.20
26947;DHT22;14501;52.282;10.560;2023-06-24T14:39:00;28.60;89.00
26947;DHT22;14501;52.282;10.560;2023-06-24T14:41:26;28.30;89.70
26947;DHT22;14501;52.282;10.560;2023-06-24T14:43:51;28.40;90.40
26947;DHT22;14501;52.282;10.560;2023-06-24T14:46:17;28.70;90.60
26947;DHT22;14501;52.282;10.560;2023-06-24T14:48:43;28.70;89.60
26947;DHT22;14501;52.282;10.560;2023-06-24T14:51:08;29.00;88.80
26947;DHT22;14501;52.282;10.560;2023-06-24T14:53:34;29.30;87.60
26947;DHT22;14501;52.282;10.560;2023-06-24T14:56:00;29.60;86.60
26947;DHT22;14501;52.282;10.560;2023-06-24T14:58:25;29.60;86.90
26947;DHT22;14501;52.282;10.560;2023-06-24T15:00:51;29.50;86.20
26947;DHT22;14501;52.282;10.560;2023-06-24T15:03:17;29.20;87.70
26947;DHT22;14501;52.282;10.560;2023-06-24T15:05:42;28.70;87.50
26947;DHT22;14501;52.282;10.560;2023-06-24T15:08:08;28.50;90.30
26947;DHT22;14501;52.282;10.560;2023-06-24T15:10:33;28.10;92.50
26947;DHT22;14501;52.282;10.560;2023-06-24T15:12:59;27.70;91.80
26947;DHT22;14501;52.282;10.560;2023-06-24T15:15:25;27.50;91.80
26947;DHT22;14501;52.282;10.560;2023-06-24T15:17:50;27.20;91.60
26947;DHT22;14501;52.282;10.560;2023-06-24T15:20:16;26.90;92.00
26947;DHT22;14501;52.282;10.560;2023-06-24T15:22:41;26.60;92.70
26947;DHT22;14501;52.282;10.560;2023-06-24T15:25:08;26.30;94.90
26947;DHT22;14501;52.282;10.560;2023-06-24T15:27:34;26.30;93.00
26947;DHT22;14501;52.282;10.560;2023-06-24T15:29:59;26.20;91.50
26947;DHT22;14501;52.282;10.560;2023-06-24T15:32:25;26.20;91.80
26947;DHT22;14501;52.282;10.560;2023-06-24T15:34:50;26.40;92.80
26947;DHT22;14501;52.282;10.560;2023-06-24T15:37:16;26.50;92.70